Ana Sayfa
METAR-TAF:

METAR-TAF

Havaalanları :

Butler, Pensilvanya, Amerika Birleşik Devletleri

Enlem: 40-47N, Boylam: 079-57W, yükseklik: 380 m

Güncel hava durumu gözlemi

Rapor saat 19:56 UTC de 1 saat ve 1 dakika önce yapıldı.
Rüzgar batı/güneybatıdan 12 kt ve 18 kt'a kadar ani rüzgarlar
Sıcaklık 9°C
Nem 27%
Basınç 1018 hPa
Görüş mesafesi: 16.1 km
6500 ft yükseklikte çok bulutlu

METAR: KBTP 231956Z AUTO 24012G18KT 10SM OVC065 09/M09 A3006 RMK AO2 SLP194 T00941089

Saat: 15:57 (20:57 UTC)


TAF: eksik

4.000'den fazla havaalanı için hava durumu gözlemleri ve tahminleri (METAR ve TAF raporları).

Kullanılabilir istasyonlar harita üzerinde sarı ve kırmızı noktalarla gösterilir.

İstasyonun adını görmek için fareyi noktanın üzerinde gezdirin.

Sonrasında hava gözlem ve tahminlerini görmek için tıklayın.

Haritayı değiştirmek için: yaklaştırmak için siyah artı işaretli yeşil düğmeye ve uzaklaştırmak için de eksi işaretli düğmeye hızla tıklayın; bitişik haritalar için yeşil okları kullanın.


METAR-TAF: